Time;durP1;ratioP1;P1;durP2;ratioP2;P2;SDS_P1;SDS_P2;PMS_P1;PMS_P2;Temp;Humidity;BMP_temperature;BMP_pressure;BME280_temperature;BME280_humidity;BME280_pressure;Samples;Min_cycle;Max_cycle;Signal;HPM_P1;HPM_P2
2024/03/13 04:06:43;;;;;;;;;57.00;46.00;;;;;;;;6110174;39;10000302;-58
2024/03/13 04:12:47;;;;;;;;;48.50;38.75;;;;;;;;6492826;39;8874;-59
2024/03/13 10:46:05;;;;;;;;;60.00;48.25;;;;;;;;6490186;39;9028;-64
2024/03/13 10:52:21;;;;;;;;;65.25;50.75;;;;;;;;6487328;31;9053;-64
2024/03/13 10:58:31;;;;;;;;;56.00;47.00;;;;;;;;6488438;39;8934;-63
2024/03/13 11:04:39;;;;;;;;;59.50;47.00;;;;;;;;6486280;39;8954;-63
2024/03/13 11:10:48;;;;;;;;;64.25;49.75;;;;;;;;6484472;46;8926;-64
2024/03/13 11:17:12;;;;;;;;;66.75;49.50;;;;;;;;6484603;31;8988;-64
2024/03/13 11:24:18;;;;;;;;;58.75;47.00;;;;;;;;6485993;46;9077;-65
2024/03/13 11:30:23;;;;;;;;;60.25;48.75;;;;;;;;6486490;39;8976;-63
2024/03/13 11:36:29;;;;;;;;;61.00;48.00;;;;;;;;6486717;39;8928;-65
2024/03/13 11:42:36;;;;;;;;;62.25;47.75;;;;;;;;6485102;39;9016;-62
2024/03/13 11:48:45;;;;;;;;;58.50;45.25;;;;;;;;6488883;39;8962;-63
2024/03/13 11:54:49;;;;;;;;;58.00;46.25;;;;;;;;6488837;39;8968;-61
2024/03/13 12:00:56;;;;;;;;;50.50;42.50;;;;;;;;6487144;46;8954;-62
2024/03/13 12:07:01;;;;;;;;;52.25;42.00;;;;;;;;6486225;39;8996;-60
2024/03/13 12:13:16;;;;;;;;;46.50;40.00;;;;;;;;6489737;31;9043;-61
2024/03/13 12:19:24;;;;;;;;;56.75;48.25;;;;;;;;6486197;46;8932;-63
2024/03/13 12:25:33;;;;;;;;;51.50;42.50;;;;;;;;6487420;46;8889;-64
2024/03/13 12:31:42;;;;;;;;;56.00;45.25;;;;;;;;6486697;39;8984;-63
2024/03/13 12:37:52;;;;;;;;;48.25;43.25;;;;;;;;6487519;46;8878;-65
2024/03/13 12:43:55;;;;;;;;;50.00;42.00;;;;;;;;6482819;46;8980;-62
2024/03/13 12:50:06;;;;;;;;;50.00;41.75;;;;;;;;6483708;39;8936;-61
2024/03/13 12:56:13;;;;;;;;;42.00;36.00;;;;;;;;6489481;39;8914;-61
2024/03/13 13:02:18;;;;;;;;;59.25;47.50;;;;;;;;6488120;39;8956;-66
2024/03/13 13:08:26;;;;;;;;;47.75;41.75;;;;;;;;6490729;31;8961;-63
2024/03/13 13:14:30;;;;;;;;;42.75;37.00;;;;;;;;6490316;39;8971;-63
2024/03/13 13:20:36;;;;;;;;;55.00;42.00;;;;;;;;6492844;31;9241;-62
2024/03/13 13:26:40;;;;;;;;;48.00;40.25;;;;;;;;6491471;39;8952;-62
2024/03/13 13:32:45;;;;;;;;;46.75;38.25;;;;;;;;6491364;39;8933;-61
2024/03/13 13:38:49;;;;;;;;;51.00;43.50;;;;;;;;6492959;39;8880;-61
2024/03/13 13:44:54;;;;;;;;;44.50;39.50;;;;;;;;6488464;39;9216;-62
2024/03/13 13:51:04;;;;;;;;;48.00;37.50;;;;;;;;6491600;39;8885;-65
2024/03/13 13:57:12;;;;;;;;;43.50;38.00;;;;;;;;6492128;31;8964;-63
2024/03/13 14:03:20;;;;;;;;;45.50;37.75;;;;;;;;6492751;39;9001;-64
2024/03/13 14:09:26;;;;;;;;;38.75;34.25;;;;;;;;6491814;39;8996;-63
2024/03/13 14:15:37;;;;;;;;;25.00;17.00;;;;;;;;6491330;31;8968;-65
2024/03/13 14:21:46;;;;;;;;;41.25;38.75;;;;;;;;6491943;31;8881;-60
2024/03/13 14:27:50;;;;;;;;;31.75;29.00;;;;;;;;6491130;46;8956;-61
2024/03/13 14:33:55;;;;;;;;;42.00;37.50;;;;;;;;6491469;39;9642;-61
2024/03/13 14:40:03;;;;;;;;;43.00;38.00;;;;;;;;6489885;39;8970;-61
2024/03/13 14:46:07;;;;;;;;;43.25;36.75;;;;;;;;6490779;39;9059;-62
2024/03/13 14:52:10;;;;;;;;;39.25;36.25;;;;;;;;6490641;39;9038;-61
2024/03/13 14:58:14;;;;;;;;;47.75;41.25;;;;;;;;6487590;39;9011;-61
2024/03/13 15:04:18;;;;;;;;;39.00;36.00;;;;;;;;6487787;46;9005;-61
2024/03/13 15:10:23;;;;;;;;;47.75;39.25;;;;;;;;6491587;39;8917;-60
2024/03/13 15:16:29;;;;;;;;;42.50;36.75;;;;;;;;6491674;46;8934;-62
2024/03/13 15:22:33;;;;;;;;;46.75;39.00;;;;;;;;6491339;31;8926;-62
2024/03/13 15:28:36;;;;;;;;;38.75;36.75;;;;;;;;6492326;39;9013;-61
2024/03/13 15:34:40;;;;;;;;;45.75;40.25;;;;;;;;6491733;31;8894;-62
2024/03/13 15:40:54;;;;;;;;;50.50;43.00;;;;;;;;6491515;46;8896;-63
2024/03/13 15:46:58;;;;;;;;;41.75;36.50;;;;;;;;6490913;39;8962;-62
2024/03/13 15:53:04;;;;;;;;;39.75;36.50;;;;;;;;6490685;39;9042;-62
2024/03/13 15:59:11;;;;;;;;;41.00;36.75;;;;;;;;6491746;31;8962;-62
2024/03/13 16:05:14;;;;;;;;;56.75;43.75;;;;;;;;6491663;31;8963;-62
2024/03/13 16:11:18;;;;;;;;;54.67;44.00;;;;;;;;6492438;39;8869;-63
2024/03/13 16:17:22;;;;;;;;;59.25;48.75;;;;;;;;6416579;36;5001903;-63
2024/03/13 16:23:35;;;;;;;;;45.25;40.00;;;;;;;;6491372;39;9815;-61
2024/03/13 16:29:40;;;;;;;;;57.50;47.00;;;;;;;;6491275;46;8951;-61
2024/03/13 16:35:46;;;;;;;;;47.50;41.75;;;;;;;;6493011;39;8950;-62
2024/03/13 16:41:51;;;;;;;;;46.25;38.75;;;;;;;;6494209;39;8923;-62
2024/03/13 16:47:56;;;;;;;;;44.00;40.00;;;;;;;;6492996;39;9001;-62
2024/03/13 16:54:01;;;;;;;;;43.25;38.75;;;;;;;;6494416;31;8951;-63
2024/03/13 17:00:10;;;;;;;;;24.50;22.50;;;;;;;;6493478;39;8946;-62
2024/03/13 17:06:12;;;;;;;;;9.00;8.00;;;;;;;;6490957;39;8912;-61
2024/03/13 17:12:17;;;;;;;;;11.00;10.25;;;;;;;;6493509;39;8973;-63
2024/03/13 17:18:21;;;;;;;;;8.00;8.00;;;;;;;;6492141;39;8928;-59
2024/03/13 17:24:27;;;;;;;;;10.00;8.00;;;;;;;;6491514;39;8827;-60
2024/03/13 17:30:34;;;;;;;;;21.00;19.00;;;;;;;;6491144;46;8904;-59
2024/03/13 17:36:38;;;;;;;;;11.25;10.75;;;;;;;;6492719;39;9617;-60
2024/03/13 17:42:41;;;;;;;;;19.50;19.00;;;;;;;;6493545;39;8886;-60
2024/03/13 17:48:45;;;;;;;;;19.25;17.75;;;;;;;;6492954;39;8966;-58
2024/03/13 17:54:47;;;;;;;;;15.25;14.50;;;;;;;;6493023;39;8897;-59
2024/03/13 18:00:50;;;;;;;;;13.75;13.25;;;;;;;;6491951;46;8930;-58
2024/03/13 18:06:52;;;;;;;;;13.75;12.50;;;;;;;;6492907;39;8925;-59
2024/03/13 18:12:57;;;;;;;;;15.75;11.50;;;;;;;;6493741;39;8927;-60
2024/03/13 18:19:02;;;;;;;;;8.00;6.75;;;;;;;;6491616;46;8913;-58
2024/03/13 18:25:09;;;;;;;;;9.50;9.50;;;;;;;;6493418;39;8886;-59
2024/03/13 18:31:12;;;;;;;;;7.00;7.00;;;;;;;;6492668;39;8878;-59
2024/03/13 18:37:14;;;;;;;;;12.00;10.50;;;;;;;;6492510;46;9001;-61
2024/03/13 18:43:17;;;;;;;;;7.00;6.25;;;;;;;;6492724;39;9009;-58
2024/03/13 18:49:21;;;;;;;;;18.50;16.50;;;;;;;;6492349;39;9965;-60
2024/03/13 18:55:25;;;;;;;;;11.00;11.00;;;;;;;;6491808;46;8966;-59
2024/03/13 19:01:28;;;;;;;;;7.50;7.00;;;;;;;;6491918;39;8989;-59
2024/03/13 19:07:35;;;;;;;;;10.75;10.75;;;;;;;;6492661;31;8914;-60
2024/03/13 19:13:37;;;;;;;;;8.25;8.25;;;;;;;;6492855;46;8882;-60
2024/03/13 19:19:40;;;;;;;;;6.75;6.25;;;;;;;;6492851;31;9061;-60
2024/03/13 19:25:43;;;;;;;;;5.50;5.50;;;;;;;;6493397;39;8886;-59
2024/03/13 19:31:48;;;;;;;;;6.75;6.75;;;;;;;;6492372;39;8890;-58
2024/03/13 19:37:54;;;;;;;;;5.00;5.00;;;;;;;;6492588;39;8903;-61
2024/03/13 19:44:02;;;;;;;;;8.25;6.75;;;;;;;;6492822;39;8870;-60
2024/03/13 19:50:11;;;;;;;;;6.50;6.50;;;;;;;;6491632;31;8902;-60
2024/03/13 19:56:16;;;;;;;;;7.00;7.00;;;;;;;;6492364;39;8889;-59
2024/03/13 20:02:24;;;;;;;;;9.00;9.00;;;;;;;;6491796;39;9045;-58
2024/03/13 20:08:27;;;;;;;;;6.00;5.25;;;;;;;;6494000;46;8890;-60
2024/03/13 20:14:31;;;;;;;;;6.25;6.25;;;;;;;;6493657;46;8893;-61
2024/03/13 20:20:35;;;;;;;;;6.00;5.00;;;;;;;;6493433;46;8958;-60
2024/03/13 20:26:44;;;;;;;;;8.00;6.00;;;;;;;;6493838;39;9091;-60
2024/03/13 20:32:47;;;;;;;;;7.00;6.00;;;;;;;;6493337;46;8878;-59
2024/03/13 20:38:55;;;;;;;;;7.50;4.50;;;;;;;;6494456;46;8879;-60
2024/03/13 20:44:57;;;;;;;;;7.50;5.75;;;;;;;;6493616;39;8866;-59
2024/03/13 20:51:01;;;;;;;;;6.50;6.50;;;;;;;;6492576;39;8917;-60
2024/03/13 20:57:04;;;;;;;;;7.00;7.00;;;;;;;;6494666;39;8890;-58
2024/03/13 21:03:06;;;;;;;;;6.00;6.00;;;;;;;;6492841;39;9090;-61
2024/03/13 21:09:10;;;;;;;;;7.00;7.00;;;;;;;;6493154;46;8900;-59
2024/03/13 21:15:15;;;;;;;;;8.25;8.25;;;;;;;;6493258;46;8827;-60
2024/03/13 21:21:25;;;;;;;;;6.75;6.25;;;;;;;;6493329;39;8973;-60
2024/03/13 21:27:27;;;;;;;;;5.75;5.75;;;;;;;;6494845;31;8898;-60
2024/03/13 21:33:29;;;;;;;;;9.25;6.25;;;;;;;;6491703;46;8874;-60
2024/03/13 21:39:34;;;;;;;;;8.00;8.00;;;;;;;;6494655;31;8878;-60
2024/03/13 21:45:37;;;;;;;;;6.75;6.00;;;;;;;;6491904;31;8890;-61
2024/03/13 21:51:41;;;;;;;;;7.00;6.00;;;;;;;;6492347;46;8890;-60
2024/03/13 21:57:44;;;;;;;;;6.00;6.00;;;;;;;;6493851;39;8854;-59
2024/03/13 22:03:48;;;;;;;;;9.00;6.50;;;;;;;;6492611;39;8965;-61
2024/03/13 22:09:54;;;;;;;;;8.50;8.50;;;;;;;;6493818;39;8866;-59
2024/03/13 22:15:57;;;;;;;;;6.50;6.00;;;;;;;;6492452;46;8850;-60
2024/03/13 22:22:07;;;;;;;;;8.00;7.00;;;;;;;;6493029;39;8898;-59
2024/03/13 22:28:09;;;;;;;;;6.00;6.00;;;;;;;;6493172;39;9726;-59
2024/03/13 22:34:14;;;;;;;;;10.00;7.00;;;;;;;;6492968;31;9040;-59
2024/03/13 22:40:19;;;;;;;;;5.00;5.00;;;;;;;;6492788;39;8994;-61
2024/03/13 22:46:26;;;;;;;;;5.75;5.75;;;;;;;;6491210;46;8962;-60
2024/03/13 22:52:31;;;;;;;;;6.00;5.00;;;;;;;;6492745;46;8935;-60
2024/03/13 22:58:33;;;;;;;;;5.00;5.00;;;;;;;;6492339;46;8949;-60
2024/03/13 23:04:36;;;;;;;;;8.75;6.00;;;;;;;;6492144;39;9005;-58
2024/03/13 23:10:47;;;;;;;;;2.25;2.25;;;;;;;;6492850;46;8807;-59
2024/03/13 23:16:51;;;;;;;;;6.25;6.25;;;;;;;;6492160;46;8854;-59
2024/03/13 23:22:55;;;;;;;;;5.00;5.00;;;;;;;;6492180;46;9070;-60
2024/03/13 23:28:59;;;;;;;;;5.00;5.00;;;;;;;;6492423;46;8897;-59
2024/03/13 23:35:05;;;;;;;;;2.00;2.00;;;;;;;;6491841;39;8839;-59
2024/03/13 23:41:14;;;;;;;;;5.00;2.00;;;;;;;;6496327;39;8972;-58
2024/03/13 23:47:19;;;;;;;;;6.25;4.00;;;;;;;;6496690;39;9002;-59
2024/03/13 23:53:23;;;;;;;;;3.00;3.00;;;;;;;;6497369;39;8822;-60
2024/03/13 23:59:27;;;;;;;;;4.50;4.50;;;;;;;;6495759;46;8956;-59
